FYGF

Grootfontein Airport

Grootfontein, Namibia
METAR FYGF 151700Z 09004KT CAVOK 21/10 Q1023
Observed Flight Rules
Aug-15 @ 17:00 UTC (5 hours ago) Visual Flight Rules
Wind Visibility Clouds
90° at 4 knots 10,000+ meters
  • Clear skies
Temperatures Readings
Current 21°C / 70°F
Dewpoint 10°C / 50°F
Humidity 50%
Altimeter 30.21" Hg
Pressure 1023 hPa
Elevation 1400
METAR FYGF 151700Z 09004KT CAVOK 21/10 Q1023
Observed Flight Rules
Aug-15 @ 17:00 UTC
(5 hours ago)
VFR
Wind Visibility
90° at 4 knots 10,000+ meters
Clouds
  • Clear skies
Temperature Dewpoint
21°C / 70°F 10°C / 50°F
Humidity Altimeter Pressure
50% 30.21" Hg 1023 hPa